createdAt,value
2019-05-15T00:00:55.488Z,0.00
2019-05-15T00:01:55.565Z,0.00
2019-05-15T00:02:55.500Z,0.00
2019-05-15T00:03:55.519Z,0.00
2019-05-15T00:04:55.507Z,0.00
2019-05-15T00:05:55.515Z,0.00
2019-05-15T00:06:55.521Z,0.00
2019-05-15T00:07:55.533Z,0.00
2019-05-15T06:26:00.427Z,5564.00
2019-05-15T06:27:00.417Z,5568.00
2019-05-15T06:28:53.621Z,5596.00
2019-05-15T06:29:53.605Z,5644.00
2019-05-15T06:31:48.360Z,5772.00
2019-05-15T06:33:01.992Z,5648.00
2019-05-15T06:33:49.101Z,5816.00
2019-05-15T06:34:48.535Z,6236.00
2019-05-15T06:35:48.829Z,5768.00
2019-05-15T06:36:48.575Z,5832.00
2019-05-15T06:37:48.445Z,5908.00
2019-05-15T06:38:48.379Z,5960.00
2019-05-15T06:39:48.131Z,5880.00
2019-05-15T06:40:48.603Z,5896.00
2019-05-15T06:41:48.322Z,5860.00
2019-05-15T06:42:48.403Z,5844.00
2019-05-15T06:43:48.381Z,6012.00
2019-05-15T06:44:48.347Z,6200.00
2019-05-15T06:45:48.639Z,6164.00
2019-05-15T06:46:48.297Z,6172.00
2019-05-15T06:47:48.248Z,6260.00
2019-05-15T06:48:48.632Z,6384.00
2019-05-15T06:49:48.592Z,6356.00
2019-05-15T06:50:49.066Z,6424.00
2019-05-15T06:51:48.730Z,6528.00
2019-05-15T06:52:48.632Z,6468.00
2019-05-15T06:53:49.205Z,6636.00
2019-05-15T06:54:48.508Z,6676.00
2019-05-15T06:55:48.595Z,6716.00
2019-05-15T06:56:49.217Z,6732.00
2019-05-15T06:57:48.519Z,6764.00
2019-05-15T06:58:48.654Z,6800.00
2019-05-15T06:59:48.466Z,6636.00
2019-05-15T07:00:48.882Z,6784.00
2019-05-15T07:01:48.216Z,6916.00
2019-05-15T07:02:48.694Z,6988.00
2019-05-15T07:03:48.428Z,7344.00
2019-05-15T07:04:48.809Z,7284.00
2019-05-15T07:05:50.318Z,7020.00
2019-05-15T07:06:48.940Z,7072.00
2019-05-15T07:08:49.667Z,7132.00
2019-05-15T07:09:48.650Z,7180.00
2019-05-15T07:10:48.744Z,7172.00
2019-05-15T07:11:48.289Z,7168.00
2019-05-15T07:12:50.945Z,7344.00
2019-05-15T07:13:48.641Z,7328.00
2019-05-15T07:14:48.769Z,7332.00
2019-05-15T07:15:49.539Z,7496.00
2019-05-15T07:16:48.702Z,7536.00
2019-05-15T07:17:48.381Z,7572.00
2019-05-15T07:18:48.624Z,7620.00
2019-05-15T07:19:48.604Z,8004.00
2019-05-15T07:20:48.847Z,7656.00
2019-05-15T07:21:48.707Z,7636.00
2019-05-15T07:23:49.568Z,7812.00
2019-05-15T07:24:47.985Z,7868.00
2019-05-15T07:25:49.828Z,7572.00
2019-05-15T07:26:48.392Z,7968.00
2019-05-15T07:27:48.024Z,8016.00
2019-05-15T07:28:48.607Z,7812.00
2019-05-15T07:29:48.789Z,8032.00
2019-05-15T07:30:49.541Z,8000.00
2019-05-15T07:31:48.081Z,8172.00
2019-05-15T07:32:48.721Z,7968.00
2019-05-15T07:33:49.214Z,8032.00
2019-05-15T07:34:48.404Z,8148.00
2019-05-15T07:35:49.321Z,8132.00
2019-05-15T07:36:49.270Z,8304.00
2019-05-15T07:37:48.141Z,8328.00
2019-05-15T07:38:48.605Z,8256.00
2019-05-15T07:39:48.778Z,8300.00
2019-05-15T07:40:57.173Z,8796.00
2019-05-15T07:41:48.448Z,8520.00
2019-05-15T07:42:48.971Z,8600.00
2019-05-15T07:43:49.498Z,8540.00
2019-05-15T07:44:48.380Z,9260.00
2019-05-15T07:45:53.686Z,8820.00
2019-05-15T07:46:48.865Z,9004.00
2019-05-15T07:47:49.000Z,9244.00
2019-05-15T07:48:49.052Z,9552.00
2019-05-15T07:49:49.213Z,9772.00
2019-05-15T07:50:49.685Z,9616.00
2019-05-15T07:51:49.002Z,9748.00
2019-05-15T07:52:48.629Z,9984.00
2019-05-15T07:53:48.925Z,10064.00
2019-05-15T07:54:48.895Z,9832.00
2019-05-15T07:55:49.932Z,9900.00
2019-05-15T07:56:48.908Z,10132.00
2019-05-15T07:57:49.625Z,10504.00
2019-05-15T07:58:52.435Z,10356.00
2019-05-15T07:59:48.480Z,10304.00
2019-05-15T08:00:49.253Z,10328.00
2019-05-15T08:01:49.028Z,10260.00
2019-05-15T08:02:48.512Z,10416.00
2019-05-15T08:03:58.699Z,11124.00
2019-05-15T08:04:48.595Z,10616.00
2019-05-15T08:05:58.775Z,10604.00
2019-05-15T08:06:49.137Z,10696.00
2019-05-15T08:07:49.122Z,11064.00
2019-05-15T08:08:48.895Z,11232.00
2019-05-15T08:09:48.861Z,11300.00
2019-05-15T08:10:49.262Z,11364.00
2019-05-15T08:11:48.887Z,11536.00
2019-05-15T08:12:49.522Z,11308.00
2019-05-15T08:13:48.811Z,11256.00
2019-05-15T08:14:50.848Z,11784.00
2019-05-15T08:15:49.039Z,12044.00
2019-05-15T08:16:48.774Z,12076.00
2019-05-15T08:18:04.114Z,12080.00
2019-05-15T08:18:48.777Z,12220.00
2019-05-15T08:19:48.844Z,12352.00
2019-05-15T08:20:49.329Z,12580.00
2019-05-15T08:21:51.738Z,12616.00
2019-05-15T08:22:49.140Z,12420.00
2019-05-15T08:23:48.844Z,12768.00
2019-05-15T08:24:48.862Z,12872.00
2019-05-15T08:25:48.902Z,13260.00
2019-05-15T08:26:48.894Z,13116.00
2019-05-15T08:27:48.908Z,13128.00
2019-05-15T08:28:48.953Z,13780.00
2019-05-15T08:29:48.936Z,13804.00
2019-05-15T08:30:49.738Z,13784.00
2019-05-15T08:31:48.993Z,13612.00
2019-05-15T08:32:51.446Z,13800.00
2019-05-15T08:33:49.005Z,13896.00
2019-05-15T08:34:49.020Z,14048.00
2019-05-15T08:35:51.789Z,14316.00
2019-05-15T08:36:49.049Z,14760.00
2019-05-15T08:37:49.268Z,14384.00
2019-05-15T08:38:49.093Z,14588.00
2019-05-15T08:39:49.110Z,14696.00
2019-05-15T08:40:49.284Z,14400.00
2019-05-15T08:41:49.131Z,14804.00
2019-05-15T08:42:56.453Z,14748.00
2019-05-15T08:43:49.161Z,14976.00
2019-05-15T08:44:49.180Z,15552.00
2019-05-15T08:45:49.790Z,15448.00
2019-05-15T08:46:49.227Z,16104.00
2019-05-15T08:47:49.485Z,16064.00
2019-05-15T08:48:49.327Z,15724.00
2019-05-15T08:49:49.267Z,15468.00
2019-05-15T08:50:49.275Z,15304.00
2019-05-15T08:51:49.290Z,15892.00
2019-05-15T08:52:49.310Z,16928.00
2019-05-15T08:53:49.323Z,16704.00
2019-05-15T08:54:49.348Z,16576.00
2019-05-15T08:55:49.373Z,16384.00
2019-05-15T08:56:49.375Z,16576.00
2019-05-15T08:57:55.541Z,16576.00
2019-05-15T08:58:49.410Z,16832.00
2019-05-15T08:59:49.428Z,17120.00
2019-05-15T09:00:52.222Z,16896.00
2019-05-15T09:01:49.468Z,17632.00
2019-05-15T09:02:49.485Z,17408.00
2019-05-15T09:03:49.494Z,17184.00
2019-05-15T09:04:49.535Z,16992.00
2019-05-15T09:05:49.524Z,17408.00
2019-05-15T09:06:49.859Z,17632.00
2019-05-15T09:07:49.556Z,17280.00
2019-05-15T09:08:49.587Z,17152.00
2019-05-15T09:09:49.611Z,17344.00
2019-05-15T09:10:50.497Z,17984.00
2019-05-15T09:11:49.621Z,18176.00
2019-05-15T09:12:50.338Z,18144.00
2019-05-15T09:13:53.579Z,18752.00
2019-05-15T09:14:49.701Z,18880.00
2019-05-15T09:15:49.683Z,19072.00
2019-05-15T09:16:49.705Z,19904.00
2019-05-15T09:17:49.723Z,19680.00
2019-05-15T09:18:49.743Z,19552.00
2019-05-15T09:19:49.772Z,18976.00
2019-05-15T09:20:49.783Z,18976.00
2019-05-15T09:21:49.790Z,19520.00
2019-05-15T09:22:49.826Z,19392.00
2019-05-15T09:23:50.217Z,19648.00
2019-05-15T09:24:49.841Z,19712.00
2019-05-15T09:25:50.031Z,20160.00
2019-05-15T09:26:49.868Z,19904.00
2019-05-15T09:27:49.893Z,20576.00
2019-05-15T09:28:49.912Z,20640.00
2019-05-15T09:29:49.911Z,20992.00
2019-05-15T09:30:49.948Z,21184.00
2019-05-15T09:31:49.955Z,21440.00
2019-05-15T09:32:49.969Z,22176.00
2019-05-15T09:34:54.983Z,20992.00
2019-05-15T09:35:50.024Z,20736.00
2019-05-15T09:36:50.056Z,20544.00
2019-05-15T09:37:50.059Z,20992.00
2019-05-15T09:38:50.074Z,20576.00
2019-05-15T09:39:50.088Z,20640.00
2019-05-15T09:40:51.200Z,22208.00
2019-05-15T09:41:50.130Z,22400.00
2019-05-15T09:42:50.147Z,22016.00
2019-05-15T09:43:50.162Z,21568.00
2019-05-15T09:44:50.178Z,21696.00
2019-05-15T09:45:50.197Z,22624.00
2019-05-15T09:46:50.209Z,23072.00
2019-05-15T09:47:50.221Z,21536.00
2019-05-15T09:48:51.779Z,21152.00
2019-05-15T09:49:50.267Z,21600.00
2019-05-15T09:50:50.288Z,21952.00
2019-05-15T09:51:50.300Z,21632.00
2019-05-15T09:52:50.413Z,22176.00
2019-05-15T09:53:50.339Z,22080.00
2019-05-15T09:54:50.353Z,22048.00
2019-05-15T09:55:50.368Z,22176.00
2019-05-15T09:56:50.372Z,22240.00
2019-05-15T09:57:50.399Z,22368.00
2019-05-15T09:58:50.408Z,22592.00
2019-05-15T09:59:50.457Z,22464.00
2019-05-15T10:00:52.576Z,22848.00
2019-05-15T10:01:50.472Z,23008.00
2019-05-15T10:02:50.483Z,22240.00
2019-05-15T10:03:50.522Z,22912.00
2019-05-15T10:05:05.579Z,22944.00
2019-05-15T10:05:50.532Z,22880.00
2019-05-15T10:06:50.554Z,21856.00
2019-05-15T10:07:50.568Z,23136.00
2019-05-15T10:08:50.586Z,23584.00
2019-05-15T10:09:52.445Z,23328.00
2019-05-15T10:10:50.616Z,23040.00
2019-05-15T10:11:50.630Z,23744.00
2019-05-15T10:12:50.670Z,23264.00
2019-05-15T10:13:50.684Z,23104.00
2019-05-15T10:14:50.720Z,23040.00
2019-05-15T10:15:51.324Z,23392.00
2019-05-15T10:16:50.721Z,23488.00
2019-05-15T10:17:51.367Z,23840.00
2019-05-15T10:18:51.309Z,23360.00
2019-05-15T10:19:50.771Z,23392.00
2019-05-15T10:20:50.778Z,23744.00
2019-05-15T10:21:53.021Z,24448.00
2019-05-15T10:22:50.819Z,24384.00
2019-05-15T10:23:50.845Z,23168.00
2019-05-15T10:24:51.173Z,23520.00
2019-05-15T10:25:50.885Z,25088.00
2019-05-15T10:26:50.885Z,24832.00
2019-05-15T10:27:50.906Z,24384.00
2019-05-15T10:28:50.940Z,24288.00
2019-05-15T10:29:50.942Z,24544.00
2019-05-15T10:30:50.956Z,24608.00
2019-05-15T10:31:50.975Z,24544.00
2019-05-15T10:32:50.997Z,24256.00
2019-05-15T10:33:51.014Z,24576.00
2019-05-15T10:34:51.030Z,24928.00
2019-05-15T10:35:51.041Z,23872.00
2019-05-15T10:36:51.058Z,23584.00
2019-05-15T10:37:51.081Z,23392.00
2019-05-15T10:38:51.134Z,24288.00
2019-05-15T10:39:52.874Z,24096.00
2019-05-15T10:41:03.833Z,23968.00
2019-05-15T10:41:51.139Z,24128.00
2019-05-15T10:42:51.166Z,24832.00
2019-05-15T10:43:56.414Z,25280.00
2019-05-15T10:44:51.193Z,25760.00
2019-05-15T10:45:54.559Z,24992.00
2019-05-15T10:46:51.230Z,24224.00
2019-05-15T10:47:51.247Z,23904.00
2019-05-15T10:48:51.267Z,24416.00
2019-05-15T10:49:51.285Z,23968.00
2019-05-15T10:50:51.306Z,23968.00
2019-05-15T10:51:51.309Z,23136.00
2019-05-15T10:52:51.325Z,23776.00
2019-05-15T10:53:51.348Z,24160.00
2019-05-15T10:54:51.365Z,23744.00
2019-05-15T10:55:51.393Z,23648.00
2019-05-15T10:56:51.415Z,24032.00
2019-05-15T10:57:51.417Z,24448.00
2019-05-15T10:58:51.445Z,23872.00
2019-05-15T10:59:51.456Z,23680.00
2019-05-15T11:00:51.471Z,23840.00
2019-05-15T11:01:51.484Z,24320.00
2019-05-15T11:02:51.518Z,24256.00
2019-05-15T11:03:51.520Z,24416.00
2019-05-15T11:04:51.535Z,24544.00
2019-05-15T11:05:51.553Z,24512.00
2019-05-15T11:06:51.569Z,24384.00
2019-05-15T11:07:51.589Z,24832.00
2019-05-15T11:08:51.793Z,20640.00
2019-05-15T11:09:51.655Z,20928.00
2019-05-15T11:10:51.644Z,9248.00
2019-05-15T11:11:51.772Z,20992.00
2019-05-15T11:12:51.670Z,23488.00
2019-05-15T11:13:51.691Z,23584.00
2019-05-15T11:14:51.711Z,23264.00
2019-05-15T11:15:51.735Z,23392.00
2019-05-15T11:16:51.743Z,23488.00
2019-05-15T11:17:51.768Z,23552.00
2019-05-15T11:18:53.563Z,23168.00
2019-05-15T11:19:51.797Z,22784.00
2019-05-15T11:20:51.813Z,22816.00
2019-05-15T11:21:51.850Z,23072.00
2019-05-15T11:22:51.854Z,22944.00
2019-05-15T11:23:51.864Z,22528.00
2019-05-15T11:24:53.129Z,22688.00
2019-05-15T11:25:51.907Z,22304.00
2019-05-15T11:26:51.922Z,22592.00
2019-05-15T11:27:51.940Z,22752.00
2019-05-15T11:28:51.951Z,22496.00
2019-05-15T11:29:51.979Z,22944.00
2019-05-15T11:30:51.991Z,22208.00
2019-05-15T11:31:52.002Z,21664.00
2019-05-15T11:32:52.019Z,21824.00
2019-05-15T11:33:52.049Z,17824.00
2019-05-15T11:34:52.057Z,22624.00
2019-05-15T11:36:00.935Z,22240.00
2019-05-15T11:36:52.084Z,21952.00
2019-05-15T11:37:56.767Z,21184.00
2019-05-15T11:38:52.122Z,20992.00
2019-05-15T11:39:52.159Z,20736.00
2019-05-15T11:40:52.155Z,21792.00
2019-05-15T11:41:52.181Z,20576.00
2019-05-15T11:42:52.193Z,20544.00
2019-05-15T11:43:52.206Z,21664.00
2019-05-15T11:44:53.399Z,21440.00
2019-05-15T11:45:52.235Z,21120.00
2019-05-15T11:46:52.313Z,20768.00
2019-05-15T11:47:52.278Z,20480.00
2019-05-15T11:48:52.296Z,20032.00
2019-05-15T11:49:52.319Z,20288.00
2019-05-15T11:50:52.325Z,20736.00
2019-05-15T11:51:52.338Z,19424.00
2019-05-15T11:52:52.360Z,19744.00
2019-05-15T11:53:52.373Z,19936.00
2019-05-15T11:54:52.390Z,20320.00
2019-05-15T11:55:52.402Z,19840.00
2019-05-15T11:56:52.429Z,20192.00
2019-05-15T11:57:55.613Z,19616.00
2019-05-15T11:58:52.464Z,19744.00
2019-05-15T11:59:55.420Z,19968.00
2019-05-15T12:00:52.498Z,19904.00
2019-05-15T12:01:52.509Z,20480.00
2019-05-15T12:02:52.542Z,15556.00
2019-05-15T12:03:52.549Z,8560.00
2019-05-15T12:04:52.570Z,7256.00
2019-05-15T12:05:52.581Z,18976.00
2019-05-15T12:06:59.612Z,21248.00
2019-05-15T12:07:52.615Z,21824.00
2019-05-15T12:08:52.638Z,18048.00
2019-05-15T12:09:52.649Z,16640.00
2019-05-15T12:10:52.661Z,21024.00
2019-05-15T12:11:52.697Z,21408.00
2019-05-15T12:12:52.693Z,12548.00
2019-05-15T12:13:52.710Z,9320.00
2019-05-15T12:14:52.733Z,21984.00
2019-05-15T12:15:52.746Z,12688.00
2019-05-15T12:17:05.414Z,8936.00
2019-05-15T12:17:52.780Z,10696.00
2019-05-15T12:18:52.798Z,13476.00
2019-05-15T12:19:55.314Z,15232.00
2019-05-15T12:20:52.834Z,16960.00
2019-05-15T12:21:52.846Z,13544.00
2019-05-15T12:22:52.897Z,17216.00
2019-05-15T12:23:52.877Z,25728.00
2019-05-15T12:24:52.890Z,9508.00
2019-05-15T12:25:52.899Z,24352.00
2019-05-15T12:26:52.928Z,25312.00
2019-05-15T12:27:52.939Z,24960.00
2019-05-15T12:28:52.970Z,24544.00
2019-05-15T12:29:52.972Z,24192.00
2019-05-15T12:30:52.990Z,24256.00
2019-05-15T12:31:52.998Z,25440.00
2019-05-15T12:32:53.059Z,25248.00
2019-05-15T12:33:53.040Z,25472.00
2019-05-15T12:34:53.069Z,26016.00
2019-05-15T12:35:53.075Z,25024.00
2019-05-15T12:36:57.765Z,25408.00
2019-05-15T12:37:53.109Z,23936.00
2019-05-15T12:38:53.118Z,23040.00
2019-05-15T12:59:53.467Z,21696.00
2019-05-15T13:00:53.487Z,22080.00
2019-05-15T13:01:53.501Z,22048.00
2019-05-15T13:02:53.540Z,22592.00
2019-05-15T13:03:53.525Z,21696.00
2019-05-15T13:04:53.555Z,21152.00
2019-05-15T13:05:53.575Z,20832.00
2019-05-15T13:07:11.493Z,20896.00
2019-05-15T13:07:53.603Z,20416.00
2019-05-15T13:08:53.620Z,19904.00
2019-05-15T13:09:53.652Z,19648.00
2019-05-15T13:10:53.658Z,19168.00
2019-05-15T13:11:53.667Z,18976.00
2019-05-15T13:13:00.944Z,18464.00
2019-05-15T13:13:53.710Z,17920.00
2019-05-15T13:14:53.726Z,17920.00
2019-05-15T13:15:53.752Z,17440.00
2019-05-15T13:16:53.763Z,17760.00
2019-05-15T13:17:54.082Z,17632.00
2019-05-15T13:18:53.796Z,17728.00
2019-05-15T13:19:53.812Z,17824.00
2019-05-15T13:20:56.210Z,17024.00
2019-05-15T13:21:53.851Z,8112.00
2019-05-15T13:22:53.888Z,19456.00
2019-05-15T13:23:53.885Z,19008.00
2019-05-15T13:24:53.899Z,18880.00
2019-05-15T13:25:53.932Z,19136.00
2019-05-15T13:26:53.939Z,20096.00
2019-05-15T13:27:53.954Z,9408.00
2019-05-15T13:28:53.978Z,8880.00
2019-05-15T13:29:53.984Z,8484.00
2019-05-15T13:30:54.012Z,7956.00
2019-05-15T13:31:54.021Z,7600.00
2019-05-15T13:32:54.043Z,7460.00
2019-05-15T13:33:54.061Z,7316.00
2019-05-15T13:34:54.078Z,7312.00
2019-05-15T13:35:54.102Z,7392.00
2019-05-15T13:36:54.134Z,7480.00
2019-05-15T13:37:54.124Z,7512.00
2019-05-15T13:38:54.241Z,8064.00
2019-05-15T13:40:54.165Z,7552.00
2019-05-15T13:41:54.181Z,7400.00
2019-05-15T13:42:54.198Z,7376.00
2019-05-15T13:43:54.209Z,7436.00
2019-05-15T13:44:54.231Z,7604.00
2019-05-15T13:45:54.236Z,16928.00
2019-05-15T13:46:54.257Z,8936.00
2019-05-15T13:47:54.267Z,9316.00
2019-05-15T13:48:54.276Z,13496.00
2019-05-15T13:49:54.324Z,16992.00
2019-05-15T13:50:54.316Z,17504.00
2019-05-15T13:51:54.329Z,16992.00
2019-05-15T13:52:54.374Z,17568.00
2019-05-15T13:53:54.362Z,17088.00
2019-05-15T13:54:54.382Z,17152.00
2019-05-15T13:55:54.384Z,16640.00
2019-05-15T13:56:54.407Z,14252.00
2019-05-15T13:57:54.415Z,16512.00
2019-05-15T13:58:54.429Z,8708.00
2019-05-15T13:59:54.453Z,8480.00
2019-05-15T14:00:54.464Z,8680.00
2019-05-15T14:01:54.486Z,15936.00
2019-05-15T14:02:54.504Z,8220.00
2019-05-15T14:03:54.513Z,7884.00
2019-05-15T14:04:54.535Z,7876.00
2019-05-15T14:05:54.556Z,7792.00
2019-05-15T14:06:54.558Z,7800.00
2019-05-15T14:07:54.583Z,7792.00
2019-05-15T14:08:54.601Z,7760.00
2019-05-15T14:09:54.627Z,7772.00
2019-05-15T14:10:54.624Z,7744.00
2019-05-15T14:11:54.643Z,7820.00
2019-05-15T14:12:54.670Z,8812.00
2019-05-15T14:13:54.697Z,14928.00
2019-05-15T14:14:54.705Z,7564.00
2019-05-15T14:15:54.699Z,7756.00
2019-05-15T14:16:54.724Z,8516.00
2019-05-15T14:17:54.736Z,8476.00
2019-05-15T14:18:54.740Z,9852.00
2019-05-15T14:19:54.758Z,8268.00
2019-05-15T14:20:54.777Z,8116.00
2019-05-15T14:21:54.787Z,8048.00
2019-05-15T14:22:54.804Z,7788.00
2019-05-15T14:23:54.816Z,7640.00
2019-05-15T14:24:54.850Z,7356.00
2019-05-15T14:25:54.838Z,7080.00
2019-05-15T14:26:54.850Z,6788.00
2019-05-15T14:27:54.873Z,6600.00
2019-05-15T14:28:54.888Z,6456.00
2019-05-15T14:29:54.897Z,6448.00
2019-05-15T14:30:54.913Z,6532.00
2019-05-15T14:31:54.918Z,6696.00
2019-05-15T14:32:55.215Z,6620.00
2019-05-15T14:33:54.962Z,6616.00
2019-05-15T14:34:54.977Z,6708.00
2019-05-15T14:35:54.984Z,6852.00
2019-05-15T14:36:55.018Z,7044.00
2019-05-15T14:38:05.498Z,7448.00
2019-05-15T14:38:55.017Z,13816.00
2019-05-15T14:39:55.056Z,14072.00
2019-05-15T14:40:55.045Z,13936.00
2019-05-15T14:41:55.069Z,14040.00
2019-05-15T14:42:55.085Z,13864.00
2019-05-15T14:43:55.087Z,14176.00
2019-05-15T14:44:55.108Z,13744.00
2019-05-15T14:45:55.124Z,13316.00
2019-05-15T14:46:55.132Z,8180.00
2019-05-15T14:47:55.144Z,6996.00
2019-05-15T14:48:55.166Z,6816.00
2019-05-15T14:49:55.172Z,7048.00
2019-05-15T14:50:55.237Z,6680.00
2019-05-15T14:52:05.663Z,6480.00
2019-05-15T14:52:55.407Z,6296.00
2019-05-15T14:53:55.234Z,6168.00
2019-05-15T14:54:55.247Z,5920.00
2019-05-15T14:55:55.303Z,5692.00
2019-05-15T14:56:55.412Z,5468.00
2019-05-15T14:57:55.464Z,5260.00
2019-05-15T14:58:55.460Z,5152.00
2019-05-15T14:59:57.885Z,5056.00
2019-05-15T15:00:55.344Z,5048.00
2019-05-15T15:01:55.347Z,5068.00
2019-05-15T15:02:55.370Z,5236.00
2019-05-15T15:03:55.377Z,5348.00
2019-05-15T15:04:55.422Z,5600.00
2019-05-15T15:05:58.045Z,6784.00
2019-05-15T15:06:57.621Z,11220.00
2019-05-15T15:07:58.352Z,11416.00
2019-05-15T15:08:55.426Z,11452.00
2019-05-15T15:09:55.456Z,11776.00
2019-05-15T15:10:59.243Z,11892.00
2019-05-15T15:11:55.480Z,11932.00
2019-05-15T15:12:55.519Z,12080.00
2019-05-15T15:13:57.812Z,12180.00
2019-05-15T15:14:55.531Z,11904.00
2019-05-15T15:15:55.536Z,11544.00
2019-05-15T15:16:55.558Z,11204.00
2019-05-15T15:17:58.141Z,7080.00
2019-05-15T15:18:55.587Z,6776.00
2019-05-15T15:19:59.954Z,6676.00
2019-05-15T15:20:57.862Z,6536.00
2019-05-15T15:21:57.923Z,6476.00
2019-05-15T15:22:55.641Z,6352.00
2019-05-15T15:23:55.662Z,6296.00
2019-05-15T15:24:55.689Z,6100.00
2019-05-15T15:25:57.717Z,5968.00
2019-05-15T15:26:55.711Z,5852.00
2019-05-15T15:27:55.717Z,5784.00
2019-05-15T15:28:55.730Z,5756.00
2019-05-15T15:29:57.970Z,5796.00
2019-05-15T15:30:57.887Z,6020.00
2019-05-15T15:31:55.778Z,6088.00
2019-05-15T15:32:57.617Z,5980.00
2019-05-15T15:33:57.887Z,6036.00
2019-05-15T15:34:55.823Z,6072.00
2019-05-15T15:35:57.960Z,6008.00
2019-05-15T15:36:57.964Z,6092.00
2019-05-15T15:37:57.978Z,6148.00
2019-05-15T15:38:55.867Z,6356.00
2019-05-15T15:39:55.897Z,6728.00
2019-05-15T15:40:55.891Z,5980.00
2019-05-15T15:41:57.872Z,5916.00
2019-05-15T15:42:58.069Z,7972.00
2019-05-15T15:43:55.931Z,7764.00
2019-05-15T15:44:57.969Z,7548.00
2019-05-15T15:45:58.075Z,7428.00
2019-05-15T15:46:55.994Z,7028.00
2019-05-15T15:47:55.973Z,6924.00
2019-05-15T15:48:55.989Z,6660.00
2019-05-15T15:49:58.354Z,6476.00
2019-05-15T15:50:57.985Z,6528.00
2019-05-15T15:51:58.030Z,6212.00
2019-05-15T15:52:56.044Z,6252.00
2019-05-15T15:53:56.047Z,6272.00
2019-05-15T15:54:56.066Z,6228.00
2019-05-15T15:55:56.077Z,6120.00
2019-05-15T15:56:56.095Z,6472.00
2019-05-15T15:57:56.110Z,6088.00
2019-05-15T15:58:56.115Z,5936.00
2019-05-15T15:59:56.134Z,6080.00
2019-05-15T16:00:56.142Z,6352.00
2019-05-15T16:01:56.149Z,6368.00
2019-05-15T16:03:56.180Z,6756.00
2019-05-15T16:04:56.192Z,6988.00
2019-05-15T16:05:56.197Z,7260.00
2019-05-15T16:06:58.732Z,7464.00
2019-05-15T16:07:56.229Z,7692.00
2019-05-15T16:08:56.235Z,6228.00
2019-05-15T16:09:56.238Z,7868.00
2019-05-15T16:10:56.263Z,7928.00
2019-05-15T16:11:58.327Z,7568.00
2019-05-15T16:12:58.264Z,6440.00
2019-05-15T16:13:58.595Z,7176.00
2019-05-15T16:14:57.916Z,5092.00
2019-05-15T16:15:57.897Z,6352.00
2019-05-15T16:16:56.327Z,4196.00
2019-05-15T16:17:56.337Z,4072.00
2019-05-15T16:18:56.348Z,3856.00
2019-05-15T16:19:56.362Z,3764.00
2019-05-15T16:20:58.006Z,3488.00
2019-05-15T16:21:56.425Z,3404.00
2019-05-15T16:22:56.403Z,3328.00
2019-05-15T16:23:58.247Z,3328.00
2019-05-15T16:24:58.727Z,3260.00
2019-05-15T16:26:00.615Z,3216.00
2019-05-15T16:26:57.997Z,3120.00
2019-05-15T16:27:57.781Z,3080.00
2019-05-15T16:28:58.005Z,2968.00
2019-05-15T16:29:58.391Z,2892.00
2019-05-15T16:30:58.483Z,2852.00
2019-05-15T16:31:58.187Z,2864.00
2019-05-15T16:32:58.501Z,2824.00
2019-05-15T16:33:58.557Z,2824.00
2019-05-15T16:34:58.304Z,2828.00
2019-05-15T16:35:58.060Z,2856.00
2019-05-15T16:36:58.504Z,2900.00
2019-05-15T16:37:58.468Z,2960.00
2019-05-15T16:39:05.119Z,3248.00
2019-05-15T16:40:58.303Z,5464.00
2019-05-15T16:41:59.183Z,5332.00
2019-05-15T16:42:58.014Z,5448.00
2019-05-15T16:43:57.818Z,5564.00
2019-05-15T16:44:58.442Z,5592.00
2019-05-15T16:45:58.656Z,5668.00
2019-05-15T16:46:58.721Z,5676.00
2019-05-15T16:47:58.683Z,5720.00
2019-05-15T16:48:58.349Z,5864.00
2019-05-15T16:49:57.951Z,6032.00
2019-05-15T16:50:58.079Z,5940.00
2019-05-15T16:51:58.318Z,5952.00
2019-05-15T16:52:58.397Z,6064.00
2019-05-15T16:53:58.148Z,5816.00
2019-05-15T16:54:58.136Z,5944.00
2019-05-15T16:55:58.593Z,5968.00
2019-05-15T16:56:58.726Z,5808.00
2019-05-15T16:57:58.535Z,5764.00
2019-05-15T16:58:56.791Z,5344.00
2019-05-15T16:59:58.604Z,5780.00
2019-05-15T17:00:58.514Z,4000.00
2019-05-15T17:01:56.827Z,4048.00
2019-05-15T17:03:09.155Z,4072.00
2019-05-15T17:03:56.853Z,5456.00
2019-05-15T17:04:56.862Z,5704.00
2019-05-15T17:05:58.707Z,5852.00
2019-05-15T17:06:58.573Z,5888.00
2019-05-15T17:07:58.334Z,5236.00
2019-05-15T17:08:57.926Z,4196.00
2019-05-15T17:09:58.617Z,5096.00
2019-05-15T17:10:58.699Z,5576.00
2019-05-15T17:11:58.253Z,4756.00
2019-05-15T17:12:58.272Z,4288.00
2019-05-15T17:13:59.144Z,4316.00
2019-05-15T17:14:58.282Z,5096.00
2019-05-15T17:15:58.390Z,4932.00
2019-05-15T17:16:58.616Z,4828.00
2019-05-15T17:17:58.282Z,4788.00
2019-05-15T17:18:58.105Z,4708.00
2019-05-15T17:19:57.930Z,4436.00
2019-05-15T17:20:59.062Z,2736.00
2019-05-15T17:21:58.788Z,2620.00
2019-05-15T17:22:57.967Z,2556.00
2019-05-15T17:23:58.185Z,2524.00
2019-05-15T17:24:58.347Z,2496.00
2019-05-15T17:25:58.140Z,2476.00
2019-05-15T17:26:59.591Z,2892.00
2019-05-15T17:27:58.410Z,2908.00
2019-05-15T17:28:58.208Z,2488.00
2019-05-15T17:29:58.447Z,2824.00
2019-05-15T17:30:58.382Z,2684.00
2019-05-15T17:31:57.145Z,2760.00
2019-05-15T17:32:57.168Z,3524.00
2019-05-15T17:33:58.246Z,3668.00
2019-05-15T17:34:58.853Z,4132.00
2019-05-15T17:35:58.008Z,4156.00
2019-05-15T17:37:58.101Z,4160.00
2019-05-15T17:38:58.094Z,4048.00
2019-05-15T17:39:58.926Z,4000.00
2019-05-15T17:40:57.850Z,3936.00
2019-05-15T17:41:59.385Z,3896.00
2019-05-15T17:42:58.571Z,3924.00
2019-05-15T17:43:57.998Z,3948.00
2019-05-15T17:44:57.921Z,3936.00
2019-05-15T17:46:58.481Z,3956.00
2019-05-15T17:47:58.433Z,3916.00
2019-05-15T17:49:06.684Z,3856.00
2019-05-15T17:49:58.818Z,3840.00
2019-05-15T17:50:59.161Z,3912.00
2019-05-15T17:51:58.231Z,3840.00
2019-05-15T17:52:58.700Z,3816.00
2019-05-15T17:53:58.292Z,3776.00
2019-05-15T17:54:59.281Z,3776.00
2019-05-15T17:55:58.605Z,3704.00
2019-05-15T17:56:58.363Z,3632.00
2019-05-15T17:58:00.801Z,3576.00
2019-05-15T17:58:58.166Z,3472.00
2019-05-15T17:59:59.027Z,2520.00
2019-05-15T18:00:59.496Z,2216.00
2019-05-15T18:01:59.546Z,2168.00
2019-05-15T18:02:57.463Z,2088.00
2019-05-15T18:03:59.463Z,2016.00
2019-05-15T18:04:58.765Z,1956.00
2019-05-15T18:05:59.162Z,1880.00
2019-05-15T18:06:59.067Z,1828.00
2019-05-15T18:07:58.391Z,1768.00
2019-05-15T18:08:59.356Z,1948.00
2019-05-15T18:09:59.082Z,2116.00
2019-05-15T18:10:58.677Z,2080.00
2019-05-15T18:11:58.664Z,2188.00
2019-05-15T18:12:58.389Z,2200.00
2019-05-15T18:13:58.232Z,2168.00
2019-05-15T18:14:58.331Z,2124.00
2019-05-15T18:16:02.934Z,2064.00
2019-05-15T18:16:58.579Z,2004.00
2019-05-15T18:17:59.380Z,2028.00
2019-05-15T18:18:58.607Z,1852.00
2019-05-15T18:19:58.127Z,1816.00
2019-05-15T18:20:58.247Z,1768.00
2019-05-15T18:21:59.223Z,1620.00
2019-05-15T18:22:59.112Z,1452.00
2019-05-15T18:23:58.674Z,1352.00
2019-05-15T18:24:58.142Z,1312.00
2019-05-15T18:25:58.441Z,1364.00
2019-05-15T18:26:58.456Z,1344.00
2019-05-15T18:27:59.198Z,1228.00
2019-05-15T18:28:58.441Z,1168.00
2019-05-15T18:29:58.386Z,1172.00
2019-05-15T18:30:58.787Z,1180.00
2019-05-15T18:31:57.822Z,1116.00
2019-05-15T18:32:58.857Z,1088.00
2019-05-15T18:33:58.972Z,1044.00
2019-05-15T18:34:58.765Z,1032.00
2019-05-15T18:35:58.215Z,960.00
2019-05-15T18:36:57.928Z,912.00
2019-05-15T18:37:59.152Z,864.00
2019-05-15T18:38:58.846Z,836.00
2019-05-15T18:40:05.358Z,768.00
2019-05-15T18:40:58.264Z,720.00
2019-05-15T18:41:57.882Z,660.00
2019-05-15T18:42:59.317Z,604.00
2019-05-15T18:43:58.022Z,560.00